Tatui, Brazil
Current Conditions -  °F | °C
As of 5:00 AM on Friday 19 Dec 2014 (Local Time) from SBKP Reporting Station
Scattered Clouds Scattered Clouds  
Wind Chill: 72°   Ceiling: Unl
Heat Index: 72°   Visibility: 6mi
Dew Point: 61°   Wind: 6mph
Humidity: 69%   Direction: 110°ESE
Pressure: 29.88"   Gusts: NA
Location:  23.35°S, 47.86°W
Report Text: SBKP 190700Z 11005KT 9999 SCT030 SCT080 22/16 Q1012
Loading
Personal Weather Stations






























Interactive Weather Map New forecast layout! Learn more

10-Day Weather Forecast

Advertisements
Track Severe Weather on mobile